createdAt,value
2022-08-24T00:01:14.500Z,14.53
2022-08-24T00:03:45.340Z,14.56
2022-08-24T00:06:15.902Z,14.50
2022-08-24T00:08:44.804Z,14.50
2022-08-24T00:11:12.782Z,14.58
2022-08-24T00:13:40.566Z,14.67
2022-08-24T00:16:09.490Z,14.61
2022-08-24T00:18:37.463Z,14.54
2022-08-24T00:21:08.108Z,14.63
2022-08-24T00:23:36.879Z,14.45
2022-08-24T00:26:06.020Z,14.31
2022-08-24T00:28:34.052Z,14.32
2022-08-24T00:31:02.413Z,14.45
2022-08-24T00:33:30.567Z,14.46
2022-08-24T00:36:00.400Z,14.43
2022-08-24T00:38:29.707Z,14.44
2022-08-24T00:40:57.873Z,14.38
2022-08-24T00:43:27.351Z,14.26
2022-08-24T00:46:08.884Z,14.17
2022-08-24T00:48:42.238Z,14.15
2022-08-24T00:51:16.068Z,14.02
2022-08-24T00:53:49.013Z,13.95
2022-08-24T00:56:22.038Z,13.87
2022-08-24T00:58:57.404Z,13.92
2022-08-24T01:01:26.801Z,13.80
2022-08-24T01:03:57.209Z,13.78
2022-08-24T01:06:25.355Z,13.85
2022-08-24T01:08:56.665Z,13.86
2022-08-24T01:11:29.226Z,13.85
2022-08-24T01:14:04.154Z,13.82
2022-08-24T01:16:49.791Z,13.79
2022-08-24T01:19:29.084Z,13.74
2022-08-24T01:22:07.784Z,13.73
2022-08-24T01:24:37.454Z,13.69
2022-08-24T01:27:09.456Z,13.67
2022-08-24T01:29:40.215Z,13.62
2022-08-24T01:32:09.096Z,13.69
2022-08-24T01:34:37.203Z,13.72
2022-08-24T01:37:06.103Z,13.76
2022-08-24T01:39:38.779Z,13.66
2022-08-24T01:42:07.786Z,13.65
2022-08-24T01:44:37.786Z,13.74
2022-08-24T01:47:08.115Z,13.77
2022-08-24T01:49:38.704Z,13.70
2022-08-24T01:52:07.566Z,13.68
2022-08-24T01:54:36.926Z,13.66
2022-08-24T01:57:05.171Z,13.67
2022-08-24T01:59:34.198Z,13.54
2022-08-24T02:02:05.708Z,13.47
2022-08-24T02:04:35.354Z,13.35
2022-08-24T02:07:03.670Z,13.30
2022-08-24T02:09:32.828Z,13.30
2022-08-24T02:12:04.288Z,13.27
2022-08-24T02:14:36.987Z,13.22
2022-08-24T02:17:06.558Z,13.27
2022-08-24T02:19:34.678Z,13.27
2022-08-24T02:22:03.119Z,13.32
2022-08-24T02:24:31.052Z,13.33
2022-08-24T02:26:59.387Z,13.33
2022-08-24T02:29:28.519Z,13.40
2022-08-24T02:31:57.840Z,13.41
2022-08-24T02:34:26.025Z,13.28
2022-08-24T02:36:54.668Z,13.28
2022-08-24T02:39:23.042Z,13.20
2022-08-24T02:41:53.103Z,13.03
2022-08-24T02:44:21.602Z,12.94
2022-08-24T02:46:50.900Z,12.98
2022-08-24T02:49:21.380Z,12.94
2022-08-24T02:51:50.540Z,12.91
2022-08-24T02:54:21.123Z,12.91
2022-08-24T02:56:52.346Z,12.90
2022-08-24T02:59:20.707Z,12.89
2022-08-24T03:01:51.733Z,12.89
2022-08-24T03:04:21.599Z,12.87
2022-08-24T03:06:49.656Z,12.82
2022-08-24T03:09:18.523Z,12.67
2022-08-24T03:11:46.309Z,12.60
2022-08-24T03:14:15.049Z,12.60
2022-08-24T03:16:43.800Z,12.54
2022-08-24T03:19:13.518Z,12.58
2022-08-24T03:21:43.328Z,12.66
2022-08-24T03:24:12.583Z,12.68
2022-08-24T03:26:44.271Z,12.68
2022-08-24T03:29:13.170Z,12.75
2022-08-24T03:31:41.076Z,12.66
2022-08-24T03:34:08.959Z,12.58
2022-08-24T03:36:38.072Z,12.56
2022-08-24T03:39:06.145Z,12.61
2022-08-24T03:41:36.623Z,12.68
2022-08-24T03:44:05.790Z,12.69
2022-08-24T03:46:36.922Z,12.65
2022-08-24T03:49:07.439Z,12.63
2022-08-24T03:51:36.506Z,12.52
2022-08-24T03:54:10.885Z,12.50
2022-08-24T03:56:39.148Z,12.54
2022-08-24T03:59:07.779Z,12.49
2022-08-24T04:01:40.198Z,12.39
2022-08-24T04:04:09.228Z,12.39
2022-08-24T04:06:40.408Z,12.35
2022-08-24T04:09:09.917Z,12.38
2022-08-24T04:11:41.691Z,12.44
2022-08-24T04:14:13.969Z,12.49
2022-08-24T04:16:59.765Z,12.48
2022-08-24T04:19:34.991Z,12.56
2022-08-24T04:22:03.061Z,12.49
2022-08-24T04:24:32.358Z,12.37
2022-08-24T04:27:00.150Z,12.32
2022-08-24T04:29:27.955Z,12.37
2022-08-24T04:31:56.216Z,12.40
2022-08-24T04:34:24.571Z,12.37
2022-08-24T04:36:52.447Z,12.35
2022-08-24T04:39:20.193Z,12.41
2022-08-24T04:42:12.771Z,12.32
2022-08-24T04:44:42.438Z,12.31
2022-08-24T04:47:10.727Z,12.29
2022-08-24T04:49:41.008Z,12.31
2022-08-24T04:52:09.852Z,12.32
2022-08-24T04:54:37.718Z,12.31
2022-08-24T04:57:17.398Z,12.23
2022-08-24T04:59:46.793Z,12.27
2022-08-24T05:02:14.775Z,12.35
2022-08-24T05:04:43.120Z,12.40
2022-08-24T05:07:10.890Z,12.52
2022-08-24T05:09:41.751Z,12.59
2022-08-24T05:12:10.383Z,12.61
2022-08-24T05:14:42.600Z,12.65
2022-08-24T05:17:10.978Z,12.71
2022-08-24T05:19:38.748Z,12.75
2022-08-24T05:22:06.566Z,12.83
2022-08-24T05:24:34.449Z,12.91
2022-08-24T05:27:02.822Z,12.93
2022-08-24T05:29:33.595Z,13.01
2022-08-24T05:32:03.098Z,13.01
2022-08-24T05:34:32.592Z,13.05
2022-08-24T05:37:00.389Z,13.08
2022-08-24T05:39:42.739Z,13.04
2022-08-24T05:42:10.885Z,13.08
2022-08-24T05:44:45.650Z,13.12
2022-08-24T05:47:14.910Z,13.19
2022-08-24T05:49:43.303Z,13.26
2022-08-24T05:52:11.635Z,13.35
2022-08-24T05:54:40.787Z,13.45
2022-08-24T05:57:10.895Z,13.53
2022-08-24T05:59:46.182Z,13.62
2022-08-24T06:02:19.420Z,13.71
2022-08-24T06:04:47.384Z,13.81
2022-08-24T06:07:15.731Z,13.91
2022-08-24T06:09:48.519Z,13.98
2022-08-24T06:12:17.146Z,14.05
2022-08-24T06:14:48.521Z,14.12
2022-08-24T06:17:22.245Z,14.21
2022-08-24T06:19:52.017Z,14.27
2022-08-24T06:22:20.087Z,14.35
2022-08-24T06:25:05.526Z,14.41
2022-08-24T06:27:33.723Z,14.46
2022-08-24T06:30:04.122Z,14.50
2022-08-24T06:32:51.692Z,14.58
2022-08-24T06:35:28.069Z,14.67
2022-08-24T06:37:57.484Z,14.76
2022-08-24T06:40:25.935Z,14.85
2022-08-24T06:42:54.884Z,14.93
2022-08-24T06:45:44.857Z,15.07
2022-08-24T06:48:15.675Z,15.18
2022-08-24T06:50:44.671Z,15.26
2022-08-24T06:53:14.788Z,15.37
2022-08-24T06:55:46.983Z,15.45
2022-08-24T06:58:14.959Z,15.55
2022-08-24T07:00:43.344Z,15.63
2022-08-24T07:03:11.708Z,15.73
2022-08-24T07:05:52.901Z,15.82
2022-08-24T07:08:42.173Z,15.90
2022-08-24T07:11:11.540Z,15.99
2022-08-24T07:13:39.793Z,16.07
2022-08-24T07:16:09.880Z,16.16
2022-08-24T07:18:41.026Z,16.26
2022-08-24T07:21:11.646Z,16.38
2022-08-24T07:23:51.136Z,16.49
2022-08-24T07:26:23.156Z,16.63
2022-08-24T07:28:54.425Z,16.71
2022-08-24T07:31:23.449Z,16.83
2022-08-24T07:34:02.623Z,16.98
2022-08-24T07:36:32.111Z,17.13
2022-08-24T07:39:00.867Z,17.23
2022-08-24T07:41:43.431Z,17.43
2022-08-24T07:44:19.678Z,17.57
2022-08-24T07:46:47.675Z,17.69
2022-08-24T07:49:33.325Z,17.81
2022-08-24T07:52:07.403Z,17.92
2022-08-24T07:54:35.987Z,18.03
2022-08-24T07:57:06.496Z,18.16
2022-08-24T07:59:35.315Z,18.34
2022-08-24T08:02:03.336Z,18.41
2022-08-24T08:04:32.195Z,18.53
2022-08-24T08:07:02.001Z,18.67
2022-08-24T08:09:34.061Z,18.84
2022-08-24T08:12:01.876Z,18.96
2022-08-24T08:14:30.591Z,19.12
2022-08-24T08:16:58.908Z,19.35
2022-08-24T08:19:27.112Z,19.57
2022-08-24T08:22:12.943Z,19.67
2022-08-24T08:25:00.586Z,19.91
2022-08-24T08:27:28.442Z,20.00
2022-08-24T08:29:56.269Z,20.09
2022-08-24T08:32:24.155Z,20.18
2022-08-24T08:34:52.052Z,20.34
2022-08-24T08:37:20.320Z,20.43
2022-08-24T08:39:48.332Z,20.56
2022-08-24T08:42:45.956Z,20.72
2022-08-24T08:45:27.839Z,20.85
2022-08-24T08:48:56.527Z,21.04
2022-08-24T08:52:00.800Z,21.27
2022-08-24T08:54:39.019Z,21.45
2022-08-24T08:57:47.398Z,21.62
2022-08-24T09:00:18.847Z,21.72
2022-08-24T09:03:27.623Z,21.85
2022-08-24T09:06:35.076Z,21.93
2022-08-24T09:09:21.578Z,22.16
2022-08-24T09:12:00.399Z,22.39
2022-08-24T09:15:02.108Z,22.58
2022-08-24T09:17:42.849Z,22.74
2022-08-24T09:20:24.145Z,22.94
2022-08-24T09:23:09.802Z,23.13
2022-08-24T09:25:46.451Z,23.38
2022-08-24T09:28:33.174Z,23.51
2022-08-24T09:31:43.482Z,23.72
2022-08-24T09:34:20.203Z,23.95
2022-08-24T09:36:55.101Z,24.13
2022-08-24T09:39:47.089Z,24.30
2022-08-24T09:42:47.702Z,24.52
2022-08-24T09:45:33.543Z,24.71
2022-08-24T09:48:46.259Z,24.97
2022-08-24T09:51:32.547Z,25.28
2022-08-24T09:54:34.118Z,25.23
2022-08-24T09:57:44.104Z,25.29
2022-08-24T10:00:19.581Z,25.57
2022-08-24T10:03:07.872Z,25.77
2022-08-24T10:05:59.477Z,26.08
2022-08-24T10:08:43.684Z,26.26
2022-08-24T10:11:23.939Z,26.37
2022-08-24T10:14:02.401Z,26.63
2022-08-24T10:16:42.078Z,26.76
2022-08-24T10:19:27.227Z,26.90
2022-08-24T10:22:03.684Z,27.12
2022-08-24T10:24:51.259Z,27.41
2022-08-24T10:27:38.437Z,27.62
2022-08-24T10:30:38.629Z,27.84
2022-08-24T10:33:18.142Z,27.80
2022-08-24T10:36:06.162Z,28.06
2022-08-24T10:39:01.340Z,28.43
2022-08-24T10:42:10.542Z,28.65
2022-08-24T10:44:49.815Z,28.89
2022-08-24T10:47:26.774Z,28.96
2022-08-24T10:50:20.820Z,28.50
2022-08-24T10:53:05.343Z,28.12
2022-08-24T10:55:35.701Z,28.21
2022-08-24T10:58:35.135Z,28.12
2022-08-24T11:01:19.448Z,28.86
2022-08-24T11:03:53.916Z,29.44
2022-08-24T11:06:24.265Z,29.79
2022-08-24T11:08:56.163Z,30.06
2022-08-24T11:11:28.924Z,30.11
2022-08-24T11:14:02.850Z,29.76
2022-08-24T11:16:36.807Z,29.30
2022-08-24T11:19:10.822Z,29.24
2022-08-24T11:21:44.035Z,29.36
2022-08-24T11:24:29.166Z,29.20
2022-08-24T11:27:02.406Z,28.89
2022-08-24T11:29:51.658Z,28.82
2022-08-24T11:32:33.014Z,28.80
2022-08-24T11:35:08.046Z,29.06
2022-08-24T11:37:38.536Z,29.64
2022-08-24T11:40:07.669Z,29.86
2022-08-24T11:42:54.492Z,30.06
2022-08-24T11:45:28.762Z,29.99
2022-08-24T11:48:08.020Z,29.93
2022-08-24T11:50:45.987Z,29.62
2022-08-24T11:53:23.710Z,29.98
2022-08-24T11:56:01.486Z,30.09
2022-08-24T11:58:41.376Z,30.30
2022-08-24T12:01:18.687Z,30.41
2022-08-24T12:04:15.174Z,30.73
2022-08-24T12:06:55.620Z,30.76
2022-08-24T12:09:44.097Z,30.88
2022-08-24T12:12:18.885Z,31.02
2022-08-24T12:14:54.983Z,30.75
2022-08-24T12:17:32.900Z,30.49
2022-08-24T12:20:05.595Z,30.24
2022-08-24T12:22:33.745Z,29.90
2022-08-24T12:25:25.835Z,30.06
2022-08-24T12:27:55.224Z,30.45
2022-08-24T12:30:23.577Z,30.72
2022-08-24T12:32:57.777Z,30.83
2022-08-24T12:35:31.561Z,31.28
2022-08-24T12:38:04.361Z,31.25
2022-08-24T12:40:37.037Z,31.29
2022-08-24T12:43:08.584Z,31.47
2022-08-24T12:45:37.873Z,31.27
2022-08-24T12:48:15.508Z,31.41
2022-08-24T12:51:00.355Z,31.52
2022-08-24T12:53:48.946Z,31.46
2022-08-24T12:56:50.330Z,31.52
2022-08-24T12:59:24.031Z,31.67
2022-08-24T13:02:00.880Z,30.71
2022-08-24T13:04:36.731Z,31.05
2022-08-24T13:07:10.458Z,30.53
2022-08-24T13:09:42.031Z,30.30
2022-08-24T13:12:52.324Z,29.80
2022-08-24T13:15:28.453Z,29.87
2022-08-24T13:18:02.905Z,29.95
2022-08-24T13:20:52.184Z,30.25
2022-08-24T13:23:23.419Z,30.89
2022-08-24T13:25:57.490Z,31.26
2022-08-24T13:28:42.551Z,31.29
2022-08-24T13:31:23.103Z,31.01
2022-08-24T13:33:54.298Z,30.87
2022-08-24T13:36:44.839Z,30.25
2022-08-24T13:39:54.313Z,30.31
2022-08-24T13:42:42.488Z,30.95
2022-08-24T13:45:22.879Z,31.07
2022-08-24T13:48:04.207Z,30.70
2022-08-24T13:50:43.386Z,30.65
2022-08-24T13:53:37.256Z,30.92
2022-08-24T13:56:32.707Z,30.98
2022-08-24T13:59:09.906Z,31.13
2022-08-24T14:01:47.573Z,31.17
2022-08-24T14:04:38.062Z,31.20
2022-08-24T14:07:13.578Z,31.42
2022-08-24T14:09:56.450Z,31.57
2022-08-24T14:12:43.372Z,31.94
2022-08-24T14:15:20.309Z,31.65
2022-08-24T14:17:54.123Z,31.00
2022-08-24T14:20:44.104Z,30.60
2022-08-24T14:23:35.573Z,30.40
2022-08-24T14:26:41.205Z,30.23
2022-08-24T14:29:35.935Z,30.27
2022-08-24T14:32:36.971Z,30.46
2022-08-24T14:35:36.066Z,30.66
2022-08-24T14:38:37.087Z,30.59
2022-08-24T14:41:27.021Z,30.35
2022-08-24T14:44:19.838Z,30.26
2022-08-24T14:47:01.600Z,30.29
2022-08-24T14:49:41.573Z,30.20
2022-08-24T14:52:24.665Z,30.07
2022-08-24T14:55:04.829Z,29.98
2022-08-24T14:58:08.791Z,29.94
2022-08-24T15:00:53.932Z,29.87
2022-08-24T15:03:49.199Z,29.81
2022-08-24T15:06:27.199Z,29.73
2022-08-24T15:09:07.869Z,29.73
2022-08-24T15:11:38.808Z,29.76
2022-08-24T15:14:11.587Z,29.70
2022-08-24T15:16:53.752Z,29.66
2022-08-24T15:19:32.319Z,29.45
2022-08-24T15:22:04.421Z,29.10
2022-08-24T15:24:40.516Z,28.86
2022-08-24T15:27:22.175Z,28.82
2022-08-24T15:29:54.102Z,28.82
2022-08-24T15:32:28.303Z,28.91
2022-08-24T15:34:59.186Z,28.98
2022-08-24T15:37:30.527Z,28.93
2022-08-24T15:39:59.105Z,28.83
2022-08-24T15:42:28.844Z,28.57
2022-08-24T15:45:02.070Z,28.23
2022-08-24T15:47:33.894Z,27.99
2022-08-24T15:50:06.416Z,27.90
2022-08-24T15:52:42.935Z,27.95
2022-08-24T15:55:32.409Z,28.08
2022-08-24T15:58:13.247Z,28.05
2022-08-24T16:00:58.647Z,27.98
2022-08-24T16:03:28.890Z,27.93
2022-08-24T16:06:19.032Z,27.74
2022-08-24T16:08:56.303Z,27.47
2022-08-24T16:11:30.790Z,27.24
2022-08-24T16:13:59.099Z,27.03
2022-08-24T16:16:38.097Z,26.91
2022-08-24T16:19:08.850Z,26.77
2022-08-24T16:21:45.138Z,26.62
2022-08-24T16:24:25.236Z,26.61
2022-08-24T16:26:57.123Z,26.50
2022-08-24T16:29:51.129Z,26.41
2022-08-24T16:32:39.322Z,26.28
2022-08-24T16:35:18.432Z,26.22
2022-08-24T16:37:47.575Z,26.23
2022-08-24T16:40:15.709Z,26.06
2022-08-24T16:42:43.850Z,25.97
2022-08-24T16:45:14.893Z,25.88
2022-08-24T16:47:42.685Z,25.86
2022-08-24T16:50:11.180Z,25.82
2022-08-24T16:52:38.975Z,25.81
2022-08-24T16:55:09.687Z,25.71
2022-08-24T16:57:42.399Z,25.68
2022-08-24T17:00:15.392Z,25.57
2022-08-24T17:02:43.545Z,25.47
2022-08-24T17:05:11.795Z,25.35
2022-08-24T17:07:40.147Z,25.24
2022-08-24T17:10:12.412Z,25.16
2022-08-24T17:12:40.164Z,25.04
2022-08-24T17:15:11.572Z,24.99
2022-08-24T17:17:41.320Z,24.85
2022-08-24T17:20:11.126Z,24.76
2022-08-24T17:22:39.464Z,24.66
2022-08-24T17:25:09.052Z,24.60
2022-08-24T17:27:36.812Z,24.51
2022-08-24T17:30:06.463Z,24.45
2022-08-24T17:32:34.399Z,24.41
2022-08-24T17:35:03.343Z,24.35
2022-08-24T17:37:31.243Z,24.24
2022-08-24T17:40:00.332Z,24.18
2022-08-24T17:45:17.729Z,24.08
2022-08-24T17:47:46.244Z,23.95
2022-08-24T17:50:15.743Z,23.88
2022-08-24T17:52:44.403Z,23.79
2022-08-24T17:55:14.075Z,23.64
2022-08-24T17:57:46.911Z,23.47
2022-08-24T18:00:17.127Z,23.35
2022-08-24T18:02:44.890Z,23.17
2022-08-24T18:05:14.478Z,23.05
2022-08-24T18:07:53.634Z,22.93
2022-08-24T18:10:24.771Z,22.80
2022-08-24T18:12:54.288Z,22.74
2022-08-24T18:15:22.819Z,22.70
2022-08-24T18:18:08.843Z,22.71
2022-08-24T18:20:39.796Z,22.59
2022-08-24T18:23:11.817Z,22.53
2022-08-24T18:25:45.287Z,22.47
2022-08-24T18:28:16.012Z,22.38
2022-08-24T18:30:44.643Z,22.28
2022-08-24T18:33:12.533Z,22.20
2022-08-24T18:35:40.558Z,22.15
2022-08-24T18:38:08.640Z,22.08
2022-08-24T18:40:36.609Z,22.07
2022-08-24T18:43:05.389Z,22.00
2022-08-24T18:45:35.752Z,21.88
2022-08-24T18:48:03.927Z,21.83
2022-08-24T18:50:33.268Z,21.73
2022-08-24T18:53:01.720Z,21.69
2022-08-24T18:55:29.494Z,21.58
2022-08-24T18:57:58.046Z,21.45
2022-08-24T19:00:25.818Z,21.32
2022-08-24T19:02:55.383Z,21.25
2022-08-24T19:05:25.552Z,21.18
2022-08-24T19:07:55.377Z,21.13
2022-08-24T19:10:25.956Z,21.02
2022-08-24T19:12:57.516Z,20.97
2022-08-24T19:15:31.958Z,20.86
2022-08-24T19:18:11.148Z,20.82
2022-08-24T19:20:45.819Z,20.70
2022-08-24T19:23:19.998Z,20.61
2022-08-24T19:25:48.145Z,20.56
2022-08-24T19:28:15.914Z,20.50
2022-08-24T19:30:44.540Z,20.45
2022-08-24T19:33:17.839Z,20.34
2022-08-24T19:35:45.616Z,20.28
2022-08-24T19:38:13.374Z,20.23
2022-08-24T19:40:47.533Z,20.17
2022-08-24T19:43:16.891Z,20.16
2022-08-24T19:46:06.177Z,20.15
2022-08-24T19:48:37.945Z,20.13
2022-08-24T19:51:07.255Z,20.12
2022-08-24T19:53:37.870Z,20.10
2022-08-24T19:56:07.212Z,20.02
2022-08-24T19:58:40.623Z,20.01
2022-08-24T20:01:13.489Z,19.99
2022-08-24T20:03:42.729Z,19.98
2022-08-24T20:06:11.534Z,19.89
2022-08-24T20:08:39.847Z,19.83
2022-08-24T20:11:09.304Z,19.70
2022-08-24T20:13:37.230Z,19.62
2022-08-24T20:16:05.896Z,19.61
2022-08-24T20:18:39.701Z,19.60
2022-08-24T20:21:09.496Z,19.51
2022-08-24T20:23:37.591Z,19.47
2022-08-24T20:26:07.919Z,19.46
2022-08-24T20:28:40.669Z,19.48
2022-08-24T20:31:09.382Z,19.52
2022-08-24T20:33:37.288Z,19.48
2022-08-24T20:36:05.677Z,19.46
2022-08-24T20:38:35.437Z,19.51
2022-08-24T20:41:03.387Z,19.49
2022-08-24T20:43:31.374Z,19.38
2022-08-24T20:45:59.112Z,19.43
2022-08-24T20:48:30.258Z,19.46
2022-08-24T20:50:58.437Z,19.32
2022-08-24T20:53:26.707Z,19.31
2022-08-24T20:55:57.501Z,19.24
2022-08-24T20:58:25.503Z,19.19
2022-08-24T21:00:53.304Z,19.14
2022-08-24T21:03:21.443Z,19.09
2022-08-24T21:05:52.207Z,19.06
2022-08-24T21:08:20.609Z,19.02
2022-08-24T21:10:48.490Z,19.00
2022-08-24T21:13:17.685Z,19.03
2022-08-24T21:15:46.416Z,19.09
2022-08-24T21:18:14.955Z,19.09
2022-08-24T21:20:44.733Z,19.08
2022-08-24T21:23:31.407Z,18.97
2022-08-24T21:26:00.061Z,18.94
2022-08-24T21:28:29.540Z,18.86
2022-08-24T21:30:57.452Z,18.88
2022-08-24T21:33:42.614Z,18.87
2022-08-24T21:36:10.539Z,18.84
2022-08-24T21:38:39.088Z,18.80
2022-08-24T21:41:07.196Z,18.82
2022-08-24T21:43:36.304Z,18.80
2022-08-24T21:46:04.096Z,18.72
2022-08-24T21:48:31.889Z,18.68
2022-08-24T21:50:59.655Z,18.68
2022-08-24T21:53:28.637Z,18.65
2022-08-24T21:55:56.967Z,18.59
2022-08-24T21:58:26.476Z,18.48
2022-08-24T22:00:59.192Z,18.43
2022-08-24T22:03:31.723Z,18.36
2022-08-24T22:06:05.685Z,18.31
2022-08-24T22:08:35.839Z,18.32
2022-08-24T22:11:03.640Z,18.27
2022-08-24T22:13:31.835Z,18.25
2022-08-24T22:16:01.276Z,18.28
2022-08-24T22:18:30.189Z,18.24
2022-08-24T22:20:58.000Z,18.25
2022-08-24T22:23:25.894Z,18.19
2022-08-24T22:25:54.650Z,18.16
2022-08-24T22:28:24.201Z,18.10
2022-08-24T22:30:52.065Z,18.00
2022-08-24T22:33:21.235Z,17.99
2022-08-24T22:35:50.353Z,17.90
2022-08-24T22:38:18.620Z,17.89
2022-08-24T22:40:46.642Z,17.88
2022-08-24T22:43:14.415Z,17.75
2022-08-24T22:45:42.240Z,17.76
2022-08-24T22:48:10.007Z,17.76
2022-08-24T22:50:39.208Z,17.77
2022-08-24T22:53:09.582Z,17.79
2022-08-24T22:55:37.363Z,17.79
2022-08-24T22:58:05.460Z,17.79
2022-08-24T23:00:33.240Z,17.75
2022-08-24T23:03:01.038Z,17.72
2022-08-24T23:05:29.007Z,17.73
2022-08-24T23:07:58.160Z,17.67
2022-08-24T23:10:26.106Z,17.66
2022-08-24T23:12:54.034Z,17.64
2022-08-24T23:15:22.170Z,17.61
2022-08-24T23:17:50.179Z,17.62
2022-08-24T23:20:16.977Z,17.60
2022-08-24T23:22:48.162Z,17.60
2022-08-24T23:25:17.322Z,17.49
2022-08-24T23:27:49.383Z,17.54
2022-08-24T23:30:18.052Z,17.53
2022-08-24T23:32:46.185Z,17.51
2022-08-24T23:35:13.968Z,17.57
2022-08-24T23:37:42.197Z,17.61
2022-08-24T23:40:11.718Z,17.63
2022-08-24T23:42:40.939Z,17.64
2022-08-24T23:45:11.823Z,17.58
2022-08-24T23:47:41.264Z,17.56
2022-08-24T23:50:10.971Z,17.41
2022-08-24T23:52:39.527Z,17.41
2022-08-24T23:55:21.582Z,17.37
2022-08-24T23:57:51.716Z,17.34
